sensor_id;sensor_type;location;lat;lon;timestamp;pressure;altitude;pressure_sealevel;temperature;humidity
76730;BME280;65653;53.106;18.046;2024-03-02T00:00:20;100386.54;;;7.29;100.00
76730;BME280;65653;53.106;18.046;2024-03-02T00:03:07;100388.08;;;7.26;100.00
76730;BME280;65653;53.106;18.046;2024-03-02T00:05:35;100385.71;;;7.25;100.00
76730;BME280;65653;53.106;18.046;2024-03-02T00:08:04;100385.33;;;7.24;100.00
76730;BME280;65653;53.106;18.046;2024-03-02T00:10:40;100382.31;;;7.23;100.00
76730;BME280;65653;53.106;18.046;2024-03-02T00:13:08;100381.25;;;7.22;100.00
76730;BME280;65653;53.106;18.046;2024-03-02T00:15:53;100386.48;;;7.22;100.00
76730;BME280;65653;53.106;18.046;2024-03-02T00:18:30;100384.61;;;7.20;100.00
76730;BME280;65653;53.106;18.046;2024-03-02T00:20:57;100386.84;;;7.19;100.00
76730;BME280;65653;53.106;18.046;2024-03-02T00:23:27;100385.58;;;7.17;100.00
76730;BME280;65653;53.106;18.046;2024-03-02T00:25:55;100385.27;;;7.15;100.00
76730;BME280;65653;53.106;18.046;2024-03-02T00:28:24;100382.23;;;7.13;100.00
76730;BME280;65653;53.106;18.046;2024-03-02T00:33:21;100381.02;;;7.11;100.00
76730;BME280;65653;53.106;18.046;2024-03-02T00:35:49;100379.21;;;7.09;100.00
76730;BME280;65653;53.106;18.046;2024-03-02T00:38:16;100381.52;;;7.07;100.00
76730;BME280;65653;53.106;18.046;2024-03-02T00:40:43;100377.94;;;7.06;100.00
76730;BME280;65653;53.106;18.046;2024-03-02T00:46:19;100375.05;;;7.04;100.00
76730;BME280;65653;53.106;18.046;2024-03-02T00:48:52;100380.92;;;7.04;100.00
76730;BME280;65653;53.106;18.046;2024-03-02T00:51:21;100378.23;;;7.02;100.00
76730;BME280;65653;53.106;18.046;2024-03-02T00:53:50;100382.33;;;6.99;100.00
76730;BME280;65653;53.106;18.046;2024-03-02T00:56:17;100381.79;;;6.96;100.00
76730;BME280;65653;53.106;18.046;2024-03-02T00:58:43;100378.87;;;6.94;100.00
76730;BME280;65653;53.106;18.046;2024-03-02T01:01:10;100374.36;;;6.92;100.00
76730;BME280;65653;53.106;18.046;2024-03-02T01:03:37;100370.38;;;6.90;100.00
76730;BME280;65653;53.106;18.046;2024-03-02T01:06:05;100364.86;;;6.89;100.00
76730;BME280;65653;53.106;18.046;2024-03-02T01:08:37;100366.31;;;6.88;100.00
76730;BME280;65653;53.106;18.046;2024-03-02T01:11:04;100358.31;;;6.87;100.00
76730;BME280;65653;53.106;18.046;2024-03-02T01:13:31;100352.16;;;6.86;100.00
76730;BME280;65653;53.106;18.046;2024-03-02T01:15:58;100346.18;;;6.86;100.00
76730;BME280;65653;53.106;18.046;2024-03-02T01:18:26;100350.79;;;6.86;100.00
76730;BME280;65653;53.106;18.046;2024-03-02T01:20:53;100350.38;;;6.83;100.00
76730;BME280;65653;53.106;18.046;2024-03-02T01:23:23;100352.63;;;6.81;100.00
76730;BME280;65653;53.106;18.046;2024-03-02T01:25:50;100351.42;;;6.79;100.00
76730;BME280;65653;53.106;18.046;2024-03-02T01:28:18;100349.29;;;6.79;100.00
76730;BME280;65653;53.106;18.046;2024-03-02T01:30:45;100338.09;;;6.77;100.00
76730;BME280;65653;53.106;18.046;2024-03-02T01:33:11;100337.98;;;6.75;100.00
76730;BME280;65653;53.106;18.046;2024-03-02T01:35:38;100330.66;;;6.74;100.00
76730;BME280;65653;53.106;18.046;2024-03-02T01:38:06;100328.46;;;6.72;100.00
76730;BME280;65653;53.106;18.046;2024-03-02T01:40:37;100324.23;;;6.73;100.00
76730;BME280;65653;53.106;18.046;2024-03-02T01:43:06;100320.52;;;6.71;100.00
76730;BME280;65653;53.106;18.046;2024-03-02T01:45:34;100325.52;;;6.69;100.00
76730;BME280;65653;53.106;18.046;2024-03-02T01:48:02;100329.58;;;6.68;100.00
76730;BME280;65653;53.106;18.046;2024-03-02T01:50:31;100331.02;;;6.67;100.00
76730;BME280;65653;53.106;18.046;2024-03-02T01:52:58;100332.83;;;6.65;100.00
76730;BME280;65653;53.106;18.046;2024-03-02T01:55:26;100330.63;;;6.62;100.00
76730;BME280;65653;53.106;18.046;2024-03-02T01:57:53;100330.50;;;6.59;100.00
76730;BME280;65653;53.106;18.046;2024-03-02T02:00:21;100332.86;;;6.56;100.00
76730;BME280;65653;53.106;18.046;2024-03-02T02:02:48;100338.84;;;6.54;100.00
76730;BME280;65653;53.106;18.046;2024-03-02T02:05:15;100339.40;;;6.52;100.00
76730;BME280;65653;53.106;18.046;2024-03-02T02:07:42;100330.36;;;6.48;100.00
76730;BME280;65653;53.106;18.046;2024-03-02T02:10:12;100335.10;;;6.42;100.00
76730;BME280;65653;53.106;18.046;2024-03-02T02:12:39;100333.66;;;6.39;100.00
76730;BME280;65653;53.106;18.046;2024-03-02T02:15:26;100328.06;;;6.36;100.00
76730;BME280;65653;53.106;18.046;2024-03-02T02:17:54;100326.19;;;6.30;100.00
76730;BME280;65653;53.106;18.046;2024-03-02T02:20:20;100321.16;;;6.25;100.00
76730;BME280;65653;53.106;18.046;2024-03-02T02:22:58;100324.52;;;6.21;100.00
76730;BME280;65653;53.106;18.046;2024-03-02T02:25:24;100330.04;;;6.17;100.00
76730;BME280;65653;53.106;18.046;2024-03-02T02:27:52;100331.67;;;6.14;100.00
76730;BME280;65653;53.106;18.046;2024-03-02T02:30:25;100332.30;;;6.10;100.00
76730;BME280;65653;53.106;18.046;2024-03-02T02:32:52;100333.59;;;6.09;100.00
76730;BME280;65653;53.106;18.046;2024-03-02T02:35:19;100331.09;;;6.10;100.00
76730;BME280;65653;53.106;18.046;2024-03-02T02:37:46;100330.33;;;6.07;100.00
76730;BME280;65653;53.106;18.046;2024-03-02T02:40:13;100328.88;;;6.04;100.00
76730;BME280;65653;53.106;18.046;2024-03-02T02:42:40;100325.01;;;6.00;100.00
76730;BME280;65653;53.106;18.046;2024-03-02T02:45:07;100329.52;;;5.96;100.00
76730;BME280;65653;53.106;18.046;2024-03-02T02:47:34;100330.73;;;5.93;100.00
76730;BME280;65653;53.106;18.046;2024-03-02T02:50:03;100329.08;;;5.89;100.00
76730;BME280;65653;53.106;18.046;2024-03-02T02:52:33;100328.73;;;5.86;100.00
76730;BME280;65653;53.106;18.046;2024-03-02T02:55:00;100328.21;;;5.84;100.00
76730;BME280;65653;53.106;18.046;2024-03-02T02:57:26;100326.80;;;5.82;100.00
76730;BME280;65653;53.106;18.046;2024-03-02T02:59:54;100327.50;;;5.78;100.00
76730;BME280;65653;53.106;18.046;2024-03-02T03:02:21;100323.77;;;5.73;100.00
76730;BME280;65653;53.106;18.046;2024-03-02T03:04:48;100327.76;;;5.69;100.00
76730;BME280;65653;53.106;18.046;2024-03-02T03:07:15;100332.52;;;5.66;100.00
76730;BME280;65653;53.106;18.046;2024-03-02T03:09:42;100332.19;;;5.64;100.00
76730;BME280;65653;53.106;18.046;2024-03-02T03:12:08;100332.08;;;5.62;100.00
76730;BME280;65653;53.106;18.046;2024-03-02T03:14:35;100332.12;;;5.60;100.00
76730;BME280;65653;53.106;18.046;2024-03-02T03:17:02;100339.23;;;5.58;100.00
76730;BME280;65653;53.106;18.046;2024-03-02T03:19:29;100338.94;;;5.57;100.00
76730;BME280;65653;53.106;18.046;2024-03-02T03:21:55;100330.41;;;5.56;100.00
76730;BME280;65653;53.106;18.046;2024-03-02T03:24:22;100330.60;;;5.58;100.00
76730;BME280;65653;53.106;18.046;2024-03-02T03:26:49;100328.23;;;5.60;100.00
76730;BME280;65653;53.106;18.046;2024-03-02T03:29:16;100329.02;;;5.65;100.00
76730;BME280;65653;53.106;18.046;2024-03-02T03:31:42;100325.15;;;5.69;100.00
76730;BME280;65653;53.106;18.046;2024-03-02T03:34:08;100321.15;;;5.72;100.00
76730;BME280;65653;53.106;18.046;2024-03-02T03:36:36;100322.23;;;5.76;100.00
76730;BME280;65653;53.106;18.046;2024-03-02T03:39:03;100317.35;;;5.78;100.00
76730;BME280;65653;53.106;18.046;2024-03-02T03:41:31;100315.56;;;5.79;100.00
76730;BME280;65653;53.106;18.046;2024-03-02T03:43:57;100315.85;;;5.80;100.00
76730;BME280;65653;53.106;18.046;2024-03-02T03:46:24;100313.05;;;5.80;100.00
76730;BME280;65653;53.106;18.046;2024-03-02T03:48:50;100314.90;;;5.80;100.00
76730;BME280;65653;53.106;18.046;2024-03-02T03:51:17;100314.89;;;5.82;100.00
76730;BME280;65653;53.106;18.046;2024-03-02T03:53:43;100318.70;;;5.84;100.00
76730;BME280;65653;53.106;18.046;2024-03-02T03:56:10;100312.79;;;5.84;100.00
76730;BME280;65653;53.106;18.046;2024-03-02T03:58:36;100313.96;;;5.85;100.00
76730;BME280;65653;53.106;18.046;2024-03-02T04:01:03;100313.13;;;5.86;100.00
76730;BME280;65653;53.106;18.046;2024-03-02T04:03:29;100309.39;;;5.87;100.00
76730;BME280;65653;53.106;18.046;2024-03-02T04:05:56;100304.14;;;5.86;100.00
76730;BME280;65653;53.106;18.046;2024-03-02T04:08:23;100303.17;;;5.87;100.00
76730;BME280;65653;53.106;18.046;2024-03-02T04:10:50;100299.42;;;5.87;100.00
76730;BME280;65653;53.106;18.046;2024-03-02T04:13:16;100298.48;;;5.87;100.00
76730;BME280;65653;53.106;18.046;2024-03-02T04:15:43;100300.41;;;5.88;100.00
76730;BME280;65653;53.106;18.046;2024-03-02T04:18:09;100304.34;;;5.89;100.00
76730;BME280;65653;53.106;18.046;2024-03-02T04:20:36;100307.84;;;5.89;100.00
76730;BME280;65653;53.106;18.046;2024-03-02T04:23:02;100299.30;;;5.88;100.00
76730;BME280;65653;53.106;18.046;2024-03-02T04:25:29;100300.84;;;5.89;100.00
76730;BME280;65653;53.106;18.046;2024-03-02T04:27:55;100296.16;;;5.90;100.00
76730;BME280;65653;53.106;18.046;2024-03-02T04:30:22;100296.30;;;5.90;100.00
76730;BME280;65653;53.106;18.046;2024-03-02T04:32:48;100297.71;;;5.91;100.00
76730;BME280;65653;53.106;18.046;2024-03-02T04:35:15;100299.23;;;5.91;100.00
76730;BME280;65653;53.106;18.046;2024-03-02T04:37:41;100290.75;;;5.92;100.00
76730;BME280;65653;53.106;18.046;2024-03-02T04:40:08;100290.58;;;5.92;100.00
76730;BME280;65653;53.106;18.046;2024-03-02T04:42:35;100301.05;;;5.92;100.00
76730;BME280;65653;53.106;18.046;2024-03-02T04:45:02;100303.34;;;5.91;100.00
76730;BME280;65653;53.106;18.046;2024-03-02T04:47:29;100295.79;;;5.90;100.00
76730;BME280;65653;53.106;18.046;2024-03-02T04:49:56;100307.23;;;5.89;100.00
76730;BME280;65653;53.106;18.046;2024-03-02T04:52:23;100306.63;;;5.88;100.00
76730;BME280;65653;53.106;18.046;2024-03-02T04:54:49;100316.39;;;5.88;100.00
76730;BME280;65653;53.106;18.046;2024-03-02T04:57:34;100318.48;;;5.87;100.00
76730;BME280;65653;53.106;18.046;2024-03-02T05:00:01;100321.22;;;5.87;100.00
76730;BME280;65653;53.106;18.046;2024-03-02T05:02:27;100323.25;;;5.87;100.00
76730;BME280;65653;53.106;18.046;2024-03-02T05:04:54;100324.73;;;5.87;100.00
76730;BME280;65653;53.106;18.046;2024-03-02T05:07:20;100336.70;;;5.87;100.00
76730;BME280;65653;53.106;18.046;2024-03-02T05:09:47;100330.08;;;5.85;100.00
76730;BME280;65653;53.106;18.046;2024-03-02T05:12:14;100331.17;;;5.85;100.00
76730;BME280;65653;53.106;18.046;2024-03-02T05:14:59;100332.58;;;5.86;100.00
76730;BME280;65653;53.106;18.046;2024-03-02T05:17:26;100338.27;;;5.87;100.00
76730;BME280;65653;53.106;18.046;2024-03-02T05:19:52;100339.19;;;5.87;100.00
76730;BME280;65653;53.106;18.046;2024-03-02T05:22:19;100336.04;;;5.87;100.00
76730;BME280;65653;53.106;18.046;2024-03-02T05:24:45;100336.30;;;5.88;100.00
76730;BME280;65653;53.106;18.046;2024-03-02T05:27:11;100339.11;;;5.89;100.00
76730;BME280;65653;53.106;18.046;2024-03-02T05:29:38;100336.77;;;5.90;100.00
76730;BME280;65653;53.106;18.046;2024-03-02T05:32:05;100345.03;;;5.92;100.00
76730;BME280;65653;53.106;18.046;2024-03-02T05:34:31;100348.23;;;5.93;100.00
76730;BME280;65653;53.106;18.046;2024-03-02T05:36:59;100347.35;;;5.94;100.00
76730;BME280;65653;53.106;18.046;2024-03-02T05:39:25;100342.13;;;5.94;100.00
76730;BME280;65653;53.106;18.046;2024-03-02T05:41:52;100344.80;;;5.95;100.00
76730;BME280;65653;53.106;18.046;2024-03-02T05:44:18;100349.77;;;5.96;100.00
76730;BME280;65653;53.106;18.046;2024-03-02T05:46:46;100350.31;;;5.98;100.00
76730;BME280;65653;53.106;18.046;2024-03-02T05:49:12;100355.41;;;6.00;100.00
76730;BME280;65653;53.106;18.046;2024-03-02T05:51:38;100349.55;;;6.00;100.00
76730;BME280;65653;53.106;18.046;2024-03-02T05:54:05;100346.75;;;6.00;100.00
76730;BME280;65653;53.106;18.046;2024-03-02T05:56:31;100349.64;;;6.01;100.00
76730;BME280;65653;53.106;18.046;2024-03-02T05:58:59;100349.04;;;6.01;100.00
76730;BME280;65653;53.106;18.046;2024-03-02T06:01:42;100354.91;;;6.02;100.00
76730;BME280;65653;53.106;18.046;2024-03-02T06:04:10;100359.54;;;6.03;100.00
76730;BME280;65653;53.106;18.046;2024-03-02T06:06:37;100353.89;;;6.05;100.00
76730;BME280;65653;53.106;18.046;2024-03-02T06:09:04;100357.60;;;6.06;100.00
76730;BME280;65653;53.106;18.046;2024-03-02T06:11:38;100359.70;;;6.07;100.00
76730;BME280;65653;53.106;18.046;2024-03-02T06:14:05;100362.13;;;6.08;100.00
76730;BME280;65653;53.106;18.046;2024-03-02T06:16:32;100359.58;;;6.11;100.00
76730;BME280;65653;53.106;18.046;2024-03-02T06:18:59;100360.80;;;6.12;100.00
76730;BME280;65653;53.106;18.046;2024-03-02T06:21:26;100361.81;;;6.15;100.00
76730;BME280;65653;53.106;18.046;2024-03-02T06:23:53;100364.60;;;6.17;100.00
76730;BME280;65653;53.106;18.046;2024-03-02T06:26:20;100357.67;;;6.20;100.00
76730;BME280;65653;53.106;18.046;2024-03-02T06:28:46;100357.13;;;6.23;100.00
76730;BME280;65653;53.106;18.046;2024-03-02T06:31:13;100360.08;;;6.26;100.00
76730;BME280;65653;53.106;18.046;2024-03-02T06:33:39;100361.99;;;6.28;100.00
76730;BME280;65653;53.106;18.046;2024-03-02T06:36:08;100363.91;;;6.29;100.00
76730;BME280;65653;53.106;18.046;2024-03-02T06:38:38;100368.05;;;6.31;100.00
76730;BME280;65653;53.106;18.046;2024-03-02T06:41:06;100365.66;;;6.32;100.00
76730;BME280;65653;53.106;18.046;2024-03-02T06:43:33;100367.30;;;6.34;100.00
76730;BME280;65653;53.106;18.046;2024-03-02T06:46:00;100364.14;;;6.37;100.00
76730;BME280;65653;53.106;18.046;2024-03-02T06:48:27;100363.33;;;6.41;100.00
76730;BME280;65653;53.106;18.046;2024-03-02T06:50:56;100359.38;;;6.47;100.00
76730;BME280;65653;53.106;18.046;2024-03-02T06:53:23;100363.92;;;6.53;100.00
76730;BME280;65653;53.106;18.046;2024-03-02T06:55:50;100356.81;;;6.58;100.00
76730;BME280;65653;53.106;18.046;2024-03-02T06:58:16;100354.42;;;6.64;100.00
76730;BME280;65653;53.106;18.046;2024-03-02T07:00:43;100347.57;;;6.71;100.00
76730;BME280;65653;53.106;18.046;2024-03-02T07:03:13;100343.60;;;6.72;100.00
76730;BME280;65653;53.106;18.046;2024-03-02T07:05:40;100347.91;;;6.69;100.00
76730;BME280;65653;53.106;18.046;2024-03-02T07:08:07;100354.17;;;6.71;100.00
76730;BME280;65653;53.106;18.046;2024-03-02T07:10:34;100359.06;;;6.72;100.00
76730;BME280;65653;53.106;18.046;2024-03-02T07:13:00;100366.81;;;6.75;100.00
76730;BME280;65653;53.106;18.046;2024-03-02T07:15:27;100367.42;;;6.79;100.00
76730;BME280;65653;53.106;18.046;2024-03-02T07:17:53;100365.07;;;6.83;100.00
76730;BME280;65653;53.106;18.046;2024-03-02T07:20:20;100367.74;;;6.87;100.00
76730;BME280;65653;53.106;18.046;2024-03-02T07:22:47;100373.82;;;6.94;100.00
76730;BME280;65653;53.106;18.046;2024-03-02T07:25:13;100368.29;;;7.01;100.00
76730;BME280;65653;53.106;18.046;2024-03-02T07:27:40;100369.78;;;7.08;100.00
76730;BME280;65653;53.106;18.046;2024-03-02T07:30:07;100372.00;;;7.19;100.00
76730;BME280;65653;53.106;18.046;2024-03-02T07:32:33;100370.39;;;7.26;100.00
76730;BME280;65653;53.106;18.046;2024-03-02T07:35:00;100373.86;;;7.31;100.00
76730;BME280;65653;53.106;18.046;2024-03-02T07:37:27;100385.41;;;7.40;100.00
76730;BME280;65653;53.106;18.046;2024-03-02T07:39:54;100383.69;;;7.48;100.00
76730;BME280;65653;53.106;18.046;2024-03-02T07:42:20;100377.70;;;7.60;100.00
76730;BME280;65653;53.106;18.046;2024-03-02T07:44:47;100374.65;;;7.76;100.00
76730;BME280;65653;53.106;18.046;2024-03-02T07:47:14;100380.33;;;7.94;100.00
76730;BME280;65653;53.106;18.046;2024-03-02T07:49:40;100378.23;;;8.17;100.00
76730;BME280;65653;53.106;18.046;2024-03-02T07:52:07;100377.88;;;8.41;100.00
76730;BME280;65653;53.106;18.046;2024-03-02T07:54:34;100379.98;;;8.67;100.00
76730;BME280;65653;53.106;18.046;2024-03-02T07:57:01;100372.94;;;8.96;100.00
76730;BME280;65653;53.106;18.046;2024-03-02T07:59:27;100374.77;;;9.29;100.00
76730;BME280;65653;53.106;18.046;2024-03-02T08:01:54;100372.39;;;9.60;100.00
76730;BME280;65653;53.106;18.046;2024-03-02T08:04:21;100378.83;;;9.93;100.00
76730;BME280;65653;53.106;18.046;2024-03-02T08:06:48;100383.17;;;10.19;99.23
76730;BME280;65653;53.106;18.046;2024-03-02T08:09:14;100381.45;;;10.47;98.67
76730;BME280;65653;53.106;18.046;2024-03-02T08:11:41;100388.15;;;10.71;97.80
76730;BME280;65653;53.106;18.046;2024-03-02T08:14:07;100389.40;;;11.12;96.00
76730;BME280;65653;53.106;18.046;2024-03-02T08:16:34;100388.55;;;11.54;93.24
76730;BME280;65653;53.106;18.046;2024-03-02T08:19:00;100386.10;;;11.75;91.32
76730;BME280;65653;53.106;18.046;2024-03-02T08:21:27;100384.80;;;11.69;90.45
76730;BME280;65653;53.106;18.046;2024-03-02T08:23:57;100385.73;;;11.72;89.37
76730;BME280;65653;53.106;18.046;2024-03-02T08:26:24;100386.95;;;12.27;89.89
76730;BME280;65653;53.106;18.046;2024-03-02T08:28:51;100392.75;;;12.53;89.16
76730;BME280;65653;53.106;18.046;2024-03-02T08:31:17;100396.86;;;12.92;85.98
76730;BME280;65653;53.106;18.046;2024-03-02T08:33:44;100398.20;;;13.40;82.90
76730;BME280;65653;53.106;18.046;2024-03-02T08:36:11;100387.00;;;13.80;81.10
76730;BME280;65653;53.106;18.046;2024-03-02T08:38:38;100384.17;;;14.25;80.36
76730;BME280;65653;53.106;18.046;2024-03-02T08:41:04;100381.46;;;14.47;77.24
76730;BME280;65653;53.106;18.046;2024-03-02T08:43:31;100379.86;;;14.40;77.99
76730;BME280;65653;53.106;18.046;2024-03-02T08:45:58;100381.15;;;14.79;75.39
76730;BME280;65653;53.106;18.046;2024-03-02T08:48:24;100382.60;;;15.17;73.41
76730;BME280;65653;53.106;18.046;2024-03-02T08:50:51;100383.89;;;15.60;72.46
76730;BME280;65653;53.106;18.046;2024-03-02T08:53:17;100386.84;;;15.80;69.67
76730;BME280;65653;53.106;18.046;2024-03-02T08:55:48;100395.04;;;15.43;69.03
76730;BME280;65653;53.106;18.046;2024-03-02T08:58:15;100405.25;;;14.81;70.01
76730;BME280;65653;53.106;18.046;2024-03-02T09:00:41;100404.72;;;14.36;72.01
76730;BME280;65653;53.106;18.046;2024-03-02T09:03:08;100404.63;;;13.77;74.75
76730;BME280;65653;53.106;18.046;2024-03-02T09:05:35;100399.91;;;13.61;75.31
76730;BME280;65653;53.106;18.046;2024-03-02T09:08:01;100402.96;;;13.77;75.46
76730;BME280;65653;53.106;18.046;2024-03-02T09:10:29;100402.08;;;13.87;73.33
76730;BME280;65653;53.106;18.046;2024-03-02T09:12:56;100410.59;;;14.22;72.26
76730;BME280;65653;53.106;18.046;2024-03-02T09:15:22;100417.58;;;14.44;72.17
76730;BME280;65653;53.106;18.046;2024-03-02T09:17:49;100414.39;;;15.23;69.27
76730;BME280;65653;53.106;18.046;2024-03-02T09:20:15;100412.16;;;15.42;69.90
76730;BME280;65653;53.106;18.046;2024-03-02T09:22:42;100408.95;;;15.55;66.95
76730;BME280;65653;53.106;18.046;2024-03-02T09:25:09;100405.48;;;15.46;67.70
76730;BME280;65653;53.106;18.046;2024-03-02T09:27:37;100407.54;;;14.83;67.72
76730;BME280;65653;53.106;18.046;2024-03-02T09:30:08;100416.30;;;15.15;68.06
76730;BME280;65653;53.106;18.046;2024-03-02T09:32:37;100418.25;;;15.42;66.49
76730;BME280;65653;53.106;18.046;2024-03-02T09:35:04;100410.64;;;15.53;65.53
76730;BME280;65653;53.106;18.046;2024-03-02T09:37:30;100400.34;;;15.69;64.09
76730;BME280;65653;53.106;18.046;2024-03-02T09:39:57;100401.51;;;15.24;66.15
76730;BME280;65653;53.106;18.046;2024-03-02T09:42:24;100408.55;;;14.73;68.43
76730;BME280;65653;53.106;18.046;2024-03-02T09:44:50;100407.98;;;14.64;67.89
76730;BME280;65653;53.106;18.046;2024-03-02T09:47:17;100413.34;;;14.34;69.40
76730;BME280;65653;53.106;18.046;2024-03-02T09:49:43;100405.77;;;14.93;68.39
76730;BME280;65653;53.106;18.046;2024-03-02T09:52:10;100398.95;;;15.99;65.81
76730;BME280;65653;53.106;18.046;2024-03-02T09:54:37;100406.79;;;16.76;61.71
76730;BME280;65653;53.106;18.046;2024-03-02T09:57:04;100411.09;;;17.04;58.71
76730;BME280;65653;53.106;18.046;2024-03-02T09:59:31;100414.16;;;16.94;58.78
76730;BME280;65653;53.106;18.046;2024-03-02T10:02:04;100415.74;;;16.25;60.07
76730;BME280;65653;53.106;18.046;2024-03-02T10:04:34;100416.16;;;15.60;61.69
76730;BME280;65653;53.106;18.046;2024-03-02T10:09:37;100417.02;;;15.72;62.05
76730;BME280;65653;53.106;18.046;2024-03-02T10:12:08;100409.63;;;16.03;60.47
76730;BME280;65653;53.106;18.046;2024-03-02T10:14:35;100407.03;;;16.13;62.24
76730;BME280;65653;53.106;18.046;2024-03-02T10:17:06;100412.44;;;16.54;61.52
76730;BME280;65653;53.106;18.046;2024-03-02T10:19:34;100408.64;;;16.26;61.49
76730;BME280;65653;53.106;18.046;2024-03-02T10:22:02;100400.94;;;17.07;58.93
76730;BME280;65653;53.106;18.046;2024-03-02T10:24:42;100391.96;;;17.82;54.60
76730;BME280;65653;53.106;18.046;2024-03-02T10:27:16;100394.27;;;19.01;53.37
76730;BME280;65653;53.106;18.046;2024-03-02T10:29:46;100392.57;;;19.54;50.58
76730;BME280;65653;53.106;18.046;2024-03-02T10:32:12;100395.21;;;19.63;49.28
76730;BME280;65653;53.106;18.046;2024-03-02T10:34:40;100388.79;;;20.23;47.62
76730;BME280;65653;53.106;18.046;2024-03-02T10:37:07;100382.02;;;20.82;45.87
76730;BME280;65653;53.106;18.046;2024-03-02T10:39:35;100380.40;;;21.36;45.73
76730;BME280;65653;53.106;18.046;2024-03-02T10:42:08;100378.35;;;21.69;45.20
76730;BME280;65653;53.106;18.046;2024-03-02T10:44:35;100372.68;;;22.13;45.13
76730;BME280;65653;53.106;18.046;2024-03-02T10:47:03;100378.70;;;22.60;43.16
76730;BME280;65653;53.106;18.046;2024-03-02T10:49:32;100381.10;;;22.68;42.86
76730;BME280;65653;53.106;18.046;2024-03-02T10:51:59;100379.38;;;22.48;42.64
76730;BME280;65653;53.106;18.046;2024-03-02T10:54:26;100374.96;;;22.79;42.24
76730;BME280;65653;53.106;18.046;2024-03-02T10:56:58;100365.13;;;23.14;41.79
76730;BME280;65653;53.106;18.046;2024-03-02T11:01:55;100365.06;;;23.63;40.06
76730;BME280;65653;53.106;18.046;2024-03-02T11:04:25;100364.81;;;23.70;40.05
76730;BME280;65653;53.106;18.046;2024-03-02T11:07:15;100358.57;;;23.76;39.34
76730;BME280;65653;53.106;18.046;2024-03-02T11:09:54;100360.06;;;23.74;39.01
76730;BME280;65653;53.106;18.046;2024-03-02T11:12:36;100363.97;;;23.30;39.41
76730;BME280;65653;53.106;18.046;2024-03-02T11:15:10;100363.09;;;23.15;39.50
76730;BME280;65653;53.106;18.046;2024-03-02T11:17:39;100364.30;;;23.30;39.57
76730;BME280;65653;53.106;18.046;2024-03-02T11:20:08;100360.41;;;22.56;41.03
76730;BME280;65653;53.106;18.046;2024-03-02T11:22:36;100361.72;;;21.46;42.85
76730;BME280;65653;53.106;18.046;2024-03-02T11:25:03;100362.29;;;21.36;42.86
76730;BME280;65653;53.106;18.046;2024-03-02T11:33:06;100350.98;;;22.77;40.41
76730;BME280;65653;53.106;18.046;2024-03-02T11:35:44;100353.81;;;22.95;40.14
76730;BME280;65653;53.106;18.046;2024-03-02T11:38:15;100356.77;;;22.96;40.14
76730;BME280;65653;53.106;18.046;2024-03-02T11:40:41;100353.73;;;23.17;40.12
76730;BME280;65653;53.106;18.046;2024-03-02T11:43:09;100356.65;;;23.08;39.53
76730;BME280;65653;53.106;18.046;2024-03-02T11:45:36;100356.13;;;23.03;39.75
76730;BME280;65653;53.106;18.046;2024-03-02T11:48:06;100358.52;;;22.72;40.38
76730;BME280;65653;53.106;18.046;2024-03-02T11:50:36;100356.01;;;22.69;40.29
76730;BME280;65653;53.106;18.046;2024-03-02T11:53:07;100351.91;;;22.67;40.38
76730;BME280;65653;53.106;18.046;2024-03-02T11:55:37;100348.98;;;22.24;40.69
76730;BME280;65653;53.106;18.046;2024-03-02T11:58:06;100349.27;;;22.13;41.37
76730;BME280;65653;53.106;18.046;2024-03-02T12:00:33;100349.13;;;21.94;41.57
76730;BME280;65653;53.106;18.046;2024-03-02T12:03:07;100346.25;;;21.72;41.80
76730;BME280;65653;53.106;18.046;2024-03-02T12:05:35;100350.37;;;21.54;42.59
76730;BME280;65653;53.106;18.046;2024-03-02T12:08:04;100347.48;;;21.82;42.00
76730;BME280;65653;53.106;18.046;2024-03-02T12:10:32;100343.04;;;22.29;41.15
76730;BME280;65653;53.106;18.046;2024-03-02T12:13:00;100340.98;;;22.11;41.51
76730;BME280;65653;53.106;18.046;2024-03-02T12:15:31;100339.94;;;21.94;41.46
76730;BME280;65653;53.106;18.046;2024-03-02T12:17:59;100345.48;;;21.87;41.90
76730;BME280;65653;53.106;18.046;2024-03-02T12:20:27;100341.38;;;21.62;41.89
76730;BME280;65653;53.106;18.046;2024-03-02T12:22:58;100337.96;;;21.34;42.49
76730;BME280;65653;53.106;18.046;2024-03-02T12:25:25;100339.85;;;20.94;43.42
76730;BME280;65653;53.106;18.046;2024-03-02T12:27:56;100340.41;;;20.38;44.85
76730;BME280;65653;53.106;18.046;2024-03-02T12:30:23;100337.59;;;20.98;43.57
76730;BME280;65653;53.106;18.046;2024-03-02T12:32:50;100332.64;;;21.45;42.56
76730;BME280;65653;53.106;18.046;2024-03-02T12:35:18;100335.48;;;21.31;42.78
76730;BME280;65653;53.106;18.046;2024-03-02T12:37:47;100334.77;;;21.29;43.05
76730;BME280;65653;53.106;18.046;2024-03-02T12:40:15;100329.06;;;21.57;42.68
76730;BME280;65653;53.106;18.046;2024-03-02T12:42:46;100331.44;;;21.85;42.26
76730;BME280;65653;53.106;18.046;2024-03-02T12:45:13;100329.42;;;22.21;41.49
76730;BME280;65653;53.106;18.046;2024-03-02T12:47:41;100327.48;;;22.33;40.63
76730;BME280;65653;53.106;18.046;2024-03-02T12:50:08;100324.02;;;21.96;41.12
76730;BME280;65653;53.106;18.046;2024-03-02T12:52:35;100330.81;;;21.53;42.11
76730;BME280;65653;53.106;18.046;2024-03-02T12:55:05;100331.45;;;20.67;43.71
76730;BME280;65653;53.106;18.046;2024-03-02T12:57:33;100335.08;;;20.18;44.89
76730;BME280;65653;53.106;18.046;2024-03-02T13:00:02;100333.55;;;19.71;46.01